• Join FlightAware (Why Join?)
  • Login
  • US Flag 
12:41AM EDT


 

Airport Tracker/Info


-or-


 

Live Flight TrackerFlight Track Log ✈ AAY230 ✈ 11-May-2013 ✈ KLAX - KBLI

Flight Track Log - Related Links

Times and Time Zones

All times are in EDT time to prevent confusion due to time zone crossing. See the AAY230 flight status page for this flight to view local times or setup timezone preferences in your user account.

Time Position Orientation Groundspeed Altitude Reporting Facility
EDT Latitude Longitude Course Direction KTS MPH feet Rate Location/Type
07:42PM 33.9500 -118.4667 262° West 167 192 1,600  Level Southern California TRACON
07:43PM 33.9406 -118.5439 262° West 242 278 3,500 2,340 Climbing Los Angeles Center
07:44PM 33.9325 -118.6333 264° West 267 307 6,500 2,640 Climbing Los Angeles Center
07:45PM 33.9878 -118.7044 313° West 282 325 9,000 1,260 Climbing Los Angeles Center
07:46PM 34.0611 -118.7067 359° North 285 328 9,100  Climbing Los Angeles Center
07:48PM 34.1228 -118.6511 37° Northeast 276 318 9,000 660 Descending Los Angeles Center
07:49PM 34.1981 -118.6458 North 285 328 10,500 2,040 Climbing Los Angeles Center
07:50PM 34.2750 -118.6703 345° North 287 330 13,200 2,400 Climbing Los Angeles Center
07:51PM 34.3578 -118.6819 353° North 297 342 15,500 2,160 Climbing Los Angeles Center
07:52PM 34.4419 -118.7033 348° North 306 352 17,700 1,980 Climbing Los Angeles Center
07:53PM 34.5292 -118.7283 347° North 322 371 19,600 1,620 Climbing Los Angeles Center
07:54PM 34.6144 -118.7722 337° Northwest 336 387 21,100 1,200 Climbing Los Angeles Center
07:55PM 34.7275 -118.8239 339° North 365 420 22,100 840 Climbing Los Angeles Center
07:56PM 34.8300 -118.8742 338° Northwest 393 452 23,000 360 Climbing Los Angeles Center
07:57PM 34.9636 -118.9150 346° North 426 490 23,000  Level Los Angeles Center
07:58PM 35.0808 -118.9458 348° North 438 504 23,000 480 Level Los Angeles Center
07:59PM 35.2042 -118.9447 360° North 445 512 24,000 480 Climbing Los Angeles Center
08:00PM 35.3494 -118.9394 North 439 505 24,100 1,080 Climbing Los Angeles Center
08:01PM 35.4686 -118.9411 359° North 432 497 26,300 1,800 Climbing Los Angeles Center
08:02PM 35.5867 -118.9369 North 427 491 27,900 1,380 Climbing Los Angeles Center
08:03PM 35.6569 -118.9356 North 426 490 28,600 1,440 Climbing Oakland Center
08:04PM 35.7731 -118.9681 347° North 433 498 30,300 1,200 Climbing Oakland Center
08:05PM 35.8903 -118.9894 352° North 428 493 31,100 1,200 Climbing Oakland Center
08:06PM 36.0064 -119.0172 349° North 425 489 32,800 1,260 Climbing Oakland Center
08:07PM 36.1203 -119.0419 350° North 419 482 33,700 540 Climbing Oakland Center
08:08PM 36.2500 -119.0783 347° North 404 465 34,000 120 Climbing Oakland Center
08:09PM 36.3578 -119.1008 350° North 400 460 34,000  Level Oakland Center
08:10PM 36.4694 -119.1314 348° North 408 470 34,000  Level Oakland Center
08:11PM 36.5792 -119.1550 350° North 404 465 34,000  Level Oakland Center
08:12PM 36.6883 -119.1844 348° North 402 463 34,000  Level Oakland Center
08:13PM 36.7994 -119.2103 349° North 407 468 34,000  Level Oakland Center
08:14PM 36.9111 -119.2394 348° North 410 472 34,000  Level Oakland Center
08:15PM 37.0217 -119.2650 350° North 409 471 34,000  Level Oakland Center
08:16PM 37.1314 -119.2961 347° North 409 471 34,000  Level Oakland Center
08:17PM 37.2433 -119.3200 350° North 407 468 34,000  Level Oakland Center
08:18PM 37.3556 -119.3533 347° North 416 479 34,000  Level Oakland Center
08:19PM 37.4664 -119.3786 350° North 427 491 34,000  Level Oakland Center
08:20PM 37.5969 -119.4067 350° North 407 468 34,000  Level Oakland Center
08:21PM 37.7028 -119.4303 350° North 407 468 34,000  Level Oakland Center
08:22PM 37.8150 -119.4628 347° North 414 476 34,000  Level Oakland Center
08:23PM 37.9283 -119.4872 350° North 411 473 34,000  Level Oakland Center
08:24PM 38.0403 -119.5186 348° North 414 476 34,000  Level Oakland Center
08:25PM 38.1533 -119.5428 350° North 412 474 34,000  Level Oakland Center
08:26PM 38.2625 -119.5742 347° North 410 472 34,000  Level Oakland Center
08:27PM 38.3747 -119.5969 351° North 409 471 34,000  Level Oakland Center
08:28PM 38.5008 -119.6303 348° North 416 479 34,000  Level Oakland Center
08:29PM 38.6153 -119.6547 351° North 417 480 34,000  Level Oakland Center
08:30PM 38.7294 -119.6856 348° North 416 479 34,000  Level Oakland Center
08:31PM 38.8450 -119.7111 350° North 419 482 34,000  Level Oakland Center
08:32PM 38.9606 -119.7414 348° North 421 484 34,000  Level Oakland Center
08:33PM 39.0750 -119.7700 349° North 418 481 34,000  Level Oakland Center
08:34PM 39.1906 -119.7964 350° North 420 483 34,000  Level Oakland Center
08:35PM 39.3056 -119.8256 349° North 418 481 34,000  Level Oakland Center
08:36PM 39.4200 -119.8539 349° North 418 481 34,000  Level Oakland Center
08:37PM 39.5592 -119.8900 349° North 424 488 34,000  Level Oakland Center
08:38PM 39.6753 -119.9147 351° North 421 484 34,000  Level Oakland Center
08:39PM 39.7897 -119.9475 348° North 420 483 34,000  Level Oakland Center
08:40PM 39.9056 -119.9728 350° North 419 482 34,000  Level Oakland Center
08:41PM 40.0225 -120.0058 348° North 426 490 34,000  Level Oakland Center
08:42PM 40.1400 -120.0325 350° North 428 493 34,000  Level Oakland Center
08:43PM 40.2558 -120.0675 347° North 428 493 34,000  Level Oakland Center
08:44PM 40.3747 -120.0900 352° North 431 496 34,000  Level Oakland Center
08:45PM 40.4911 -120.1264 347° North 429 494 34,000  Level Oakland Center
08:46PM 40.6022 -120.1492 351° North 429 494 34,000  Level Oakland Center
08:47PM 40.6492 -120.1633 347° North 432 497 34,000  Level Seattle Center
08:48PM 40.7678 -120.1964 348° North 436 502 34,000  Level Seattle Center
08:49PM 40.8836 -120.2253 349° North 428 493 34,000  Level Seattle Center
08:50PM 41.0006 -120.2589 348° North 430 495 34,000  Level Seattle Center
08:51PM 41.1208 -120.2883 350° North 437 503 34,000  Level Seattle Center
08:52PM 41.2397 -120.3222 348° North 438 504 34,000  Level Seattle Center
08:53PM 41.3594 -120.3481 351° North 437 503 34,000  Level Seattle Center
08:54PM 41.4764 -120.3836 347° North 434 499 34,000  Level Seattle Center
08:55PM 41.5986 -120.4119 350° North 443 510 34,000  Level Seattle Center
08:56PM 41.7167 -120.4450 348° North 437 503 34,000  Level Seattle Center
08:57PM 41.8322 -120.4736 350° North 430 495 34,000  Level Seattle Center
08:58PM 41.9517 -120.5103 347° North 439 505 34,000  Level Seattle Center
08:59PM 42.0725 -120.5383 350° North 441 507 34,000  Level Seattle Center
09:00PM 42.1919 -120.5739 348° North 443 510 34,000  Level Seattle Center
09:01PM 42.3131 -120.6028 350° North 443 510 34,000  Level Seattle Center
09:02PM 42.4333 -120.6375 348° North 444 511 34,000  Level Seattle Center
09:03PM 42.5558 -120.6672 350° North 448 516 34,000  Level Seattle Center
09:04PM 42.7000 -120.7086 348° North 443 510 34,000  Level Seattle Center
09:05PM 42.8231 -120.7425 349° North 451 519 34,000  Level Seattle Center
09:06PM 42.9419 -120.7742 349° North 438 504 34,000  Level Seattle Center
09:07PM 43.0650 -120.8047 350° North 447 514 34,000  Level Seattle Center
09:08PM 43.1856 -120.8417 347° North 446 513 34,000  Level Seattle Center
09:09PM 43.3083 -120.8728 350° North 449 517 34,000  Level Seattle Center
09:10PM 43.4300 -120.9128 347° North 450 518 34,000  Level Seattle Center
09:11PM 43.5519 -120.9411 350° North 446 513 34,000  Level Seattle Center
09:12PM 43.6842 -120.9808 348° North 454 522 34,000  Level Seattle Center
09:13PM 43.8075 -121.0156 349° North 453 521 34,000  Level Seattle Center
09:14PM 43.9300 -121.0522 348° North 453 521 34,000  Level Seattle Center
09:15PM 44.0531 -121.0853 349° North 450 518 34,000  Level Seattle Center
09:16PM 44.1778 -121.1256 347° North 456 525 34,000  Level Seattle Center
09:17PM 44.3028 -121.1567 350° North 458 527 34,000  Level Seattle Center
09:18PM 44.4175 -121.1944 347° North 452 520 34,000  Level Seattle Center
09:19PM 44.5408 -121.2267 349° North 451 519 34,000  Level Seattle Center
09:20PM 44.6719 -121.2678 347° North 452 520 34,000  Level Seattle Center
09:21PM 44.7972 -121.3011 349° North 456 525 34,000  Level Seattle Center
09:22PM 44.9197 -121.3400 347° North 452 520 34,000  Level Seattle Center
09:23PM 45.0436 -121.3750 349° North 452 520 34,000  Level Seattle Center
09:24PM 45.1661 -121.4144 347° North 450 518 34,000  Level Seattle Center
09:25PM 45.2925 -121.4456 350° North 457 526 34,000  Level Seattle Center
09:26PM 45.4144 -121.4900 346° North 454 522 34,000  Level Seattle Center
09:27PM 45.5417 -121.5217 350° North 462 532 34,000  Level Seattle Center
09:28PM 45.6653 -121.5644 346° North 460 529 34,000  Level Seattle Center
09:29PM 45.7919 -121.5975 350° North 460 529 34,000  Level Seattle Center
09:30PM 45.9153 -121.6408 346° North 458 527 34,000  Level Seattle Center
09:31PM 46.0422 -121.6736 350° North 461 531 34,000  Level Seattle Center
09:32PM 46.1661 -121.7186 346° North 460 529 34,000  Level Seattle Center
09:33PM 46.2975 -121.7525 350° North 463 533 34,000  Level Seattle Center
09:34PM 46.4211 -121.7972 346° North 463 533 34,000  Level Seattle Center
09:35PM 46.5481 -121.8322 349° North 469 540 34,000  Level Seattle Center
09:36PM 46.6967 -121.8861 346° North 464 534 34,000  Level Seattle Center
09:37PM 46.8217 -121.9189 350° North 463 533 34,000  Level Seattle Center
09:38PM 46.9450 -121.9625 346° North 463 533 34,000  Level Seattle Center
09:39PM 47.0694 -121.9981 349° North 462 532 34,000 -180 Level Seattle Center
09:40PM 47.1922 -122.0414 347° North 463 533 33,700 -1,560 Descending Seattle Center
09:41PM 47.3189 -122.0783 349° North 469 540 30,900 -3,120 Descending Seattle Center
09:42PM 47.4444 -122.1267 345° North 472 543 27,500 -3,060 Descending Seattle Center
09:43PM 47.5736 -122.1583 351° North 482 555 24,700 -3,060 Descending Seattle Center
09:44PM 47.7181 -122.2153 345° North 463 533 21,400 -2,880 Descending Seattle Center
09:45PM 47.8378 -122.2469 350° North 450 518 18,900 -2,400 Descending Seattle Center
09:46PM 47.9494 -122.2903 345° North 422 486 16,600 -2,040 Descending Seattle Center
09:47PM 48.0303 -122.3100 351° North 396 456 15,500 -1,500 Descending Seattle Center
09:47PM 48.0572 -122.3158 352° North 399 459 15,100 -1,860 Descending Seattle Center
09:48PM 48.1525 -122.3450 348° North 350 403 13,100 -2,220 Descending Seattle Center
09:49PM 48.2311 -122.3700 348° North 313 360 11,100 -2,160 Descending Seattle Center
09:50PM 48.3239 -122.3997 348° North 314 361 9,200 -1,680 Descending Seattle Center
09:51PM 48.4067 -122.4186 351° North 308 354 7,800 -1,500 Descending Seattle Center
09:52PM 48.4861 -122.4494 346° North 297 342 6,200 -1,500 Descending Seattle Center
09:53PM 48.5597 -122.4839 343° North 274 315 4,800 -1,260 Descending Seattle Center
09:54PM 48.6314 -122.5197 342° North 251 289 3,700 -1,200 Descending Seattle Center
09:55PM 48.6833 -122.5333 350° North 210 242 2,300 -1,260 Descending Vancouver Center
09:56PM 48.7333 -122.5333 360° North 200 230 1,100 -1,200 Descending Vancouver Center